createdAt,value
2023-01-13T00:00:56.091Z,75.20
2023-01-13T00:01:56.087Z,75.19
2023-01-13T00:02:56.079Z,75.22
2023-01-13T00:03:56.086Z,75.24
2023-01-13T00:04:56.086Z,75.26
2023-01-13T00:05:56.050Z,75.30
2023-01-13T00:06:56.019Z,75.32
2023-01-13T00:07:56.027Z,75.29
2023-01-13T00:08:56.009Z,75.33
2023-01-13T00:09:56.006Z,75.35
2023-01-13T00:10:55.995Z,75.35
2023-01-13T00:11:55.980Z,75.28
2023-01-13T00:12:55.964Z,75.28
2023-01-13T00:13:55.959Z,75.30
2023-01-13T00:14:55.969Z,75.27
2023-01-13T00:15:56.008Z,75.27
2023-01-13T00:16:55.927Z,75.25
2023-01-13T00:17:55.905Z,75.24
2023-01-13T00:18:55.895Z,75.24
2023-01-13T00:19:55.897Z,75.27
2023-01-13T00:20:55.903Z,75.27
2023-01-13T00:21:55.878Z,75.26
2023-01-13T00:22:55.857Z,75.24
2023-01-13T00:23:55.849Z,75.24
2023-01-13T00:24:55.842Z,75.26
2023-01-13T00:25:55.824Z,75.21
2023-01-13T00:26:55.846Z,75.23
2023-01-13T00:27:55.824Z,75.23
2023-01-13T00:28:55.795Z,75.20
2023-01-13T00:29:55.782Z,75.19
2023-01-13T00:30:55.791Z,75.19
2023-01-13T00:31:55.791Z,75.17
2023-01-13T00:32:55.760Z,75.13
2023-01-13T00:33:55.735Z,75.09
2023-01-13T00:34:55.727Z,74.99
2023-01-13T00:35:55.729Z,74.99
2023-01-13T00:36:55.704Z,74.99
2023-01-13T00:37:55.704Z,74.98
2023-01-13T00:38:55.684Z,74.95
2023-01-13T00:39:55.666Z,74.91
2023-01-13T00:40:55.663Z,74.89
2023-01-13T00:41:55.684Z,74.89
2023-01-13T00:42:55.664Z,74.87
2023-01-13T00:43:55.626Z,74.87
2023-01-13T00:44:55.657Z,74.84
2023-01-13T00:45:55.595Z,74.86
2023-01-13T00:46:55.598Z,74.93
2023-01-13T00:47:55.576Z,74.93
2023-01-13T00:48:55.585Z,74.89
2023-01-13T00:49:55.577Z,74.83
2023-01-13T00:50:55.564Z,74.80
2023-01-13T00:51:55.537Z,74.79
2023-01-13T00:52:55.546Z,74.78
2023-01-13T00:53:55.537Z,74.73
2023-01-13T00:54:55.515Z,74.72
2023-01-13T00:55:55.507Z,74.75
2023-01-13T00:56:55.484Z,74.74
2023-01-13T00:57:55.500Z,74.73
2023-01-13T00:58:55.463Z,74.75
2023-01-13T00:59:55.464Z,74.74
2023-01-13T01:00:55.521Z,74.73
2023-01-13T01:01:55.702Z,74.75
2023-01-13T01:02:55.433Z,74.74
2023-01-13T01:03:55.411Z,74.84
2023-01-13T01:04:55.426Z,74.81
2023-01-13T01:05:55.412Z,74.81
2023-01-13T01:06:55.377Z,74.84
2023-01-13T01:07:55.381Z,74.81
2023-01-13T01:08:55.365Z,74.77
2023-01-13T01:09:55.376Z,74.72
2023-01-13T01:10:55.330Z,74.72
2023-01-13T01:11:55.334Z,74.72
2023-01-13T01:12:55.352Z,74.69
2023-01-13T01:13:55.311Z,74.62
2023-01-13T01:14:55.318Z,74.61
2023-01-13T01:15:55.304Z,74.64
2023-01-13T01:16:55.284Z,74.68
2023-01-13T01:17:55.272Z,74.64
2023-01-13T01:18:55.256Z,74.64
2023-01-13T01:19:55.256Z,74.62
2023-01-13T01:20:55.215Z,74.60
2023-01-13T01:21:55.212Z,74.60
2023-01-13T01:22:55.247Z,74.63
2023-01-13T01:23:55.204Z,74.63
2023-01-13T01:24:55.171Z,74.68
2023-01-13T01:25:55.174Z,74.72
2023-01-13T01:26:55.156Z,74.74
2023-01-13T01:27:55.167Z,74.76
2023-01-13T01:28:55.129Z,74.76
2023-01-13T01:29:55.138Z,74.80
2023-01-13T01:30:55.114Z,74.81
2023-01-13T01:31:55.102Z,74.88
2023-01-13T01:32:55.097Z,74.85
2023-01-13T01:33:55.134Z,74.82
2023-01-13T01:34:55.064Z,74.78
2023-01-13T01:35:55.059Z,74.76
2023-01-13T01:36:55.052Z,74.78
2023-01-13T01:37:55.068Z,74.79
2023-01-13T01:38:55.032Z,74.79
2023-01-13T01:39:55.043Z,74.75
2023-01-13T01:40:55.009Z,74.74
2023-01-13T01:41:55.017Z,74.76
2023-01-13T01:42:54.983Z,74.76
2023-01-13T01:43:54.978Z,74.75
2023-01-13T01:44:54.977Z,74.74
2023-01-13T01:45:54.980Z,74.77
2023-01-13T01:46:54.992Z,74.77
2023-01-13T01:47:54.949Z,74.77
2023-01-13T01:48:54.916Z,74.78
2023-01-13T01:49:54.919Z,74.75
2023-01-13T01:50:54.913Z,74.74
2023-01-13T01:51:54.891Z,74.76
2023-01-13T01:52:54.877Z,74.77
2023-01-13T01:53:54.871Z,74.78
2023-01-13T01:54:54.849Z,74.76
2023-01-13T01:55:54.851Z,74.76
2023-01-13T01:56:54.819Z,74.78
2023-01-13T01:57:54.820Z,74.78
2023-01-13T01:58:54.828Z,74.78
2023-01-13T01:59:54.808Z,74.80
2023-01-13T02:00:54.958Z,74.80
2023-01-13T02:01:54.942Z,74.79
2023-01-13T02:02:54.787Z,74.80
2023-01-13T02:03:54.752Z,74.68
2023-01-13T02:04:54.735Z,74.59
2023-01-13T02:05:54.738Z,74.57
2023-01-13T02:06:54.735Z,74.54
2023-01-13T02:07:54.742Z,74.53
2023-01-13T02:08:54.737Z,74.52
2023-01-13T02:09:54.685Z,74.52
2023-01-13T02:10:54.671Z,74.50
2023-01-13T02:11:54.684Z,74.52
2023-01-13T02:12:54.655Z,74.55
2023-01-13T02:13:54.647Z,74.50
2023-01-13T02:14:54.628Z,74.50
2023-01-13T02:15:54.634Z,74.51
2023-01-13T02:16:54.621Z,74.55
2023-01-13T02:17:54.602Z,74.56
2023-01-13T02:18:54.608Z,74.59
2023-01-13T02:19:54.580Z,74.62
2023-01-13T02:20:54.568Z,74.55
2023-01-13T02:21:54.604Z,74.45
2023-01-13T02:22:54.563Z,74.41
2023-01-13T02:23:54.539Z,74.43
2023-01-13T02:24:54.561Z,74.52
2023-01-13T02:25:54.570Z,74.58
2023-01-13T02:26:54.504Z,74.67
2023-01-13T02:27:54.521Z,74.74
2023-01-13T02:28:54.473Z,74.81
2023-01-13T02:29:54.458Z,74.85
2023-01-13T02:30:54.453Z,74.85
2023-01-13T02:31:54.483Z,74.87
2023-01-13T02:32:54.488Z,74.91
2023-01-13T02:33:54.439Z,74.93
2023-01-13T02:34:54.420Z,74.95
2023-01-13T02:35:54.407Z,74.99
2023-01-13T02:36:54.396Z,74.97
2023-01-13T02:37:54.373Z,74.97
2023-01-13T02:38:54.399Z,75.03
2023-01-13T02:39:54.373Z,75.07
2023-01-13T02:40:54.358Z,75.09
2023-01-13T02:41:54.349Z,75.07
2023-01-13T02:42:54.353Z,75.06
2023-01-13T02:43:54.315Z,75.06
2023-01-13T02:44:54.309Z,75.06
2023-01-13T02:45:54.324Z,75.04
2023-01-13T02:46:54.309Z,75.06
2023-01-13T02:47:54.297Z,75.11
2023-01-13T02:48:54.266Z,75.13
2023-01-13T02:49:54.265Z,75.12
2023-01-13T02:50:54.227Z,75.16
2023-01-13T02:51:54.238Z,75.17
2023-01-13T02:52:54.228Z,75.20
2023-01-13T02:53:54.239Z,75.23
2023-01-13T02:54:54.256Z,75.26
2023-01-13T02:55:54.173Z,75.29
2023-01-13T02:56:54.163Z,75.32
2023-01-13T02:57:54.191Z,75.37
2023-01-13T02:58:54.227Z,75.40
2023-01-13T02:59:54.150Z,75.38
2023-01-13T03:00:54.183Z,75.40
2023-01-13T03:01:54.258Z,75.39
2023-01-13T03:02:54.138Z,75.38
2023-01-13T03:03:54.092Z,75.36
2023-01-13T03:04:54.169Z,75.35
2023-01-13T03:05:54.107Z,75.35
2023-01-13T03:06:54.111Z,75.34
2023-01-13T03:07:54.067Z,75.33
2023-01-13T03:08:54.099Z,75.33
2023-01-13T03:09:54.081Z,75.34
2023-01-13T03:10:54.057Z,75.33
2023-01-13T03:11:54.048Z,75.36
2023-01-13T03:12:54.043Z,75.36
2023-01-13T03:13:53.995Z,75.37
2023-01-13T03:14:54.039Z,75.37
2023-01-13T03:15:53.993Z,75.37
2023-01-13T03:16:54.049Z,75.33
2023-01-13T03:17:53.973Z,75.31
2023-01-13T03:18:53.955Z,75.28
2023-01-13T03:19:53.944Z,75.28
2023-01-13T03:20:53.955Z,75.26
2023-01-13T03:21:53.940Z,75.24
2023-01-13T03:22:53.934Z,75.24
2023-01-13T03:23:53.895Z,75.20
2023-01-13T03:24:53.935Z,75.19
2023-01-13T03:25:53.870Z,75.19
2023-01-13T03:26:53.929Z,75.15
2023-01-13T03:27:53.880Z,75.20
2023-01-13T03:28:53.863Z,75.18
2023-01-13T03:29:53.826Z,75.20
2023-01-13T03:30:53.854Z,75.23
2023-01-13T03:31:53.800Z,75.26
2023-01-13T03:32:53.808Z,75.28
2023-01-13T03:33:53.821Z,75.27
2023-01-13T03:34:53.775Z,75.26
2023-01-13T03:35:53.796Z,75.22
2023-01-13T03:36:53.781Z,75.15
2023-01-13T03:37:53.788Z,75.11
2023-01-13T03:38:53.721Z,75.07
2023-01-13T03:39:53.699Z,75.02
2023-01-13T03:40:53.712Z,75.04
2023-01-13T03:41:53.731Z,74.98
2023-01-13T03:42:53.715Z,74.95
2023-01-13T03:43:53.689Z,74.95
2023-01-13T03:44:53.663Z,74.97
2023-01-13T03:45:53.749Z,74.96
2023-01-13T03:46:53.669Z,74.97
2023-01-13T03:47:53.608Z,74.97
2023-01-13T03:48:53.625Z,74.90
2023-01-13T03:49:53.648Z,74.91
2023-01-13T03:50:53.560Z,74.94
2023-01-13T03:51:53.619Z,74.95
2023-01-13T03:52:53.599Z,74.98
2023-01-13T03:53:53.542Z,74.97
2023-01-13T03:54:53.578Z,75.02
2023-01-13T03:55:53.533Z,75.04
2023-01-13T03:56:53.524Z,75.05
2023-01-13T03:57:53.538Z,75.06
2023-01-13T03:58:53.496Z,75.09
2023-01-13T03:59:53.500Z,75.09
2023-01-13T04:00:53.633Z,75.11
2023-01-13T04:01:53.597Z,75.08
2023-01-13T04:02:53.454Z,75.11
2023-01-13T04:03:53.490Z,75.12
2023-01-13T04:04:53.440Z,75.14
2023-01-13T04:05:53.423Z,75.13
2023-01-13T04:06:53.423Z,75.09
2023-01-13T04:07:53.425Z,75.10
2023-01-13T04:08:53.371Z,75.12
2023-01-13T04:09:53.396Z,75.12
2023-01-13T04:10:53.385Z,75.14
2023-01-13T04:11:53.378Z,75.14
2023-01-13T04:12:53.383Z,75.15
2023-01-13T04:13:53.324Z,75.15
2023-01-13T04:14:53.319Z,75.20
2023-01-13T04:15:53.354Z,75.21
2023-01-13T04:16:53.352Z,75.24
2023-01-13T04:17:53.279Z,75.25
2023-01-13T04:18:53.282Z,75.26
2023-01-13T04:19:53.278Z,75.27
2023-01-13T04:20:53.259Z,75.29
2023-01-13T04:21:53.247Z,75.33
2023-01-13T04:22:53.249Z,75.36
2023-01-13T04:23:53.237Z,75.40
2023-01-13T04:24:53.241Z,75.41
2023-01-13T04:25:53.278Z,75.42
2023-01-13T04:26:53.231Z,75.46
2023-01-13T04:27:53.190Z,75.46
2023-01-13T04:28:53.243Z,75.46
2023-01-13T04:29:53.195Z,75.48
2023-01-13T04:30:53.280Z,75.51
2023-01-13T04:31:53.230Z,75.51
2023-01-13T04:32:53.183Z,75.49
2023-01-13T04:33:53.137Z,75.53
2023-01-13T04:34:53.133Z,75.51
2023-01-13T04:35:53.155Z,75.51
2023-01-13T04:36:53.118Z,75.51
2023-01-13T04:37:53.077Z,75.52
2023-01-13T04:38:53.125Z,75.51
2023-01-13T04:39:53.088Z,75.54
2023-01-13T04:40:53.084Z,75.53
2023-01-13T04:41:53.041Z,75.53
2023-01-13T05:12:53.469Z,74.95
2023-01-13T05:13:50.776Z,75.17
2023-01-13T05:14:50.774Z,75.18
2023-01-13T05:15:50.204Z,75.13
2023-01-13T05:16:50.137Z,75.11
2023-01-13T05:17:50.841Z,75.14
2023-01-13T05:18:50.148Z,75.13
2023-01-13T05:19:50.145Z,75.18
2023-01-13T05:20:50.119Z,75.23
2023-01-13T05:21:50.061Z,75.16
2023-01-13T05:22:50.042Z,75.15
2023-01-13T05:23:50.225Z,75.16
2023-01-13T05:24:50.044Z,75.17
2023-01-13T05:25:50.027Z,75.20
2023-01-13T05:26:50.368Z,75.18
2023-01-13T05:30:28.780Z,74.90
2023-01-13T05:31:28.868Z,75.34
2023-01-13T05:32:28.788Z,75.16
2023-01-13T05:33:28.750Z,75.01
2023-01-13T05:34:28.735Z,74.99
2023-01-13T05:35:28.783Z,74.97
2023-01-13T05:36:28.739Z,75.10
2023-01-13T05:37:28.763Z,75.27
2023-01-13T05:38:28.690Z,75.03
2023-01-13T05:39:28.685Z,74.90
2023-01-13T05:40:28.678Z,74.85
2023-01-13T05:41:28.746Z,74.83
2023-01-13T05:42:28.726Z,74.81
2023-01-13T05:43:28.840Z,74.85
2023-01-13T05:44:28.736Z,74.88
2023-01-13T05:45:28.782Z,74.90
2023-01-13T05:46:28.687Z,74.93
2023-01-13T05:47:28.642Z,74.92
2023-01-13T05:48:28.632Z,74.94
2023-01-13T05:49:28.623Z,74.97
2023-01-13T05:50:28.571Z,74.95
2023-01-13T05:51:28.613Z,74.94
2023-01-13T05:52:28.653Z,74.96
2023-01-13T05:53:28.710Z,74.96
2023-01-13T05:54:28.610Z,74.98
2023-01-13T05:55:28.561Z,75.00
2023-01-13T05:56:28.590Z,75.06
2023-01-13T05:57:28.540Z,75.05
2023-01-13T05:58:28.600Z,75.03
2023-01-13T05:59:28.584Z,75.04
2023-01-13T06:00:28.541Z,75.06
2023-01-13T06:01:28.675Z,75.05
2023-01-13T06:02:28.496Z,75.11
2023-01-13T06:03:28.597Z,75.13
2023-01-13T06:04:28.540Z,75.16
2023-01-13T06:05:28.430Z,75.24
2023-01-13T06:06:28.436Z,75.26
2023-01-13T06:07:28.495Z,75.30
2023-01-13T06:08:28.503Z,75.32
2023-01-13T06:09:28.532Z,75.34
2023-01-13T06:10:28.447Z,75.30
2023-01-13T06:11:28.420Z,75.33
2023-01-13T06:12:28.573Z,75.34
2023-01-13T06:13:28.382Z,75.32
2023-01-13T06:14:28.360Z,75.34
2023-01-13T06:15:28.373Z,75.31
2023-01-13T06:16:28.431Z,75.36
2023-01-13T06:17:28.322Z,75.39
2023-01-13T06:18:28.286Z,75.39
2023-01-13T06:19:28.338Z,75.28
2023-01-13T06:20:28.321Z,75.28
2023-01-13T06:21:28.234Z,75.56
2023-01-13T06:22:28.223Z,75.73
2023-01-13T06:23:28.252Z,75.54
2023-01-13T06:24:28.255Z,75.53
2023-01-13T06:25:28.231Z,75.63
2023-01-13T06:26:28.201Z,75.86
2023-01-13T06:27:28.178Z,75.93
2023-01-13T06:28:28.177Z,76.02
2023-01-13T06:29:28.217Z,76.10
2023-01-13T06:30:28.144Z,76.14
2023-01-13T06:31:28.199Z,76.24
2023-01-13T06:32:28.138Z,76.26
2023-01-13T06:33:28.146Z,76.35
2023-01-13T06:34:28.112Z,76.40
2023-01-13T06:35:28.095Z,76.44
2023-01-13T06:36:28.091Z,76.46
2023-01-13T06:37:28.062Z,76.52
2023-01-13T06:38:28.079Z,76.60
2023-01-13T06:39:28.048Z,76.64
2023-01-13T06:40:28.040Z,76.72
2023-01-13T06:41:28.028Z,76.79
2023-01-13T06:42:28.020Z,76.82
2023-01-13T06:43:28.053Z,76.84
2023-01-13T06:44:28.006Z,76.86
2023-01-13T06:45:28.007Z,76.93
2023-01-13T06:46:28.021Z,77.00
2023-01-13T06:47:27.979Z,77.40
2023-01-13T06:48:27.988Z,77.91
2023-01-13T06:49:27.976Z,78.51
2023-01-13T06:50:27.938Z,79.00
2023-01-13T06:51:27.904Z,79.47
2023-01-13T06:52:27.909Z,79.89
2023-01-13T06:53:27.930Z,80.20
2023-01-13T06:54:28.067Z,80.34
2023-01-13T06:55:28.023Z,80.48
2023-01-13T06:56:28.144Z,80.64
2023-01-13T06:57:27.886Z,80.83
2023-01-13T06:58:28.104Z,80.98
2023-01-13T06:59:27.888Z,81.21
2023-01-13T07:00:27.914Z,80.97
2023-01-13T07:01:27.956Z,80.76
2023-01-13T07:02:27.954Z,80.64
2023-01-13T07:03:27.860Z,80.56
2023-01-13T07:04:27.815Z,80.51
2023-01-13T07:05:27.818Z,80.35
2023-01-13T07:06:27.836Z,80.28
2023-01-13T07:07:27.845Z,80.35
2023-01-13T07:08:27.859Z,80.44
2023-01-13T07:09:27.772Z,80.52
2023-01-13T07:10:27.884Z,80.71
2023-01-13T07:11:27.767Z,80.84
2023-01-13T07:12:27.742Z,80.58
2023-01-13T07:13:27.737Z,80.02
2023-01-13T07:14:27.869Z,80.01
2023-01-13T07:15:27.743Z,79.94
2023-01-13T07:16:27.855Z,79.44
2023-01-13T07:17:27.661Z,79.09
2023-01-13T07:18:27.683Z,78.68
2023-01-13T07:19:27.660Z,77.90
2023-01-13T07:20:27.703Z,77.73
2023-01-13T07:21:27.661Z,77.72
2023-01-13T07:22:27.644Z,77.62
2023-01-13T07:23:27.608Z,77.43
2023-01-13T07:24:27.654Z,77.30
2023-01-13T07:25:27.682Z,77.11
2023-01-13T07:26:27.626Z,76.61
2023-01-13T07:27:27.615Z,75.69
2023-01-13T07:28:27.540Z,75.11
2023-01-13T07:29:27.592Z,75.01
2023-01-13T07:30:27.522Z,75.13
2023-01-13T07:31:27.554Z,75.42
2023-01-13T07:32:27.526Z,75.53
2023-01-13T07:33:27.505Z,75.59
2023-01-13T07:34:27.528Z,75.78
2023-01-13T07:35:27.494Z,76.09
2023-01-13T07:36:27.452Z,76.36
2023-01-13T07:37:27.481Z,76.32
2023-01-13T07:38:27.525Z,76.53
2023-01-13T07:39:27.518Z,76.57
2023-01-13T07:40:27.452Z,76.48
2023-01-13T07:41:27.462Z,76.49
2023-01-13T07:42:27.392Z,76.74
2023-01-13T07:43:27.413Z,76.99
2023-01-13T07:44:27.396Z,77.15
2023-01-13T07:45:27.445Z,77.43
2023-01-13T07:46:27.553Z,77.57
2023-01-13T07:47:27.336Z,77.60
2023-01-13T07:48:27.393Z,77.57
2023-01-13T07:49:27.327Z,77.51
2023-01-13T07:50:27.407Z,77.68
2023-01-13T07:51:27.343Z,77.70
2023-01-13T07:52:27.320Z,77.94
2023-01-13T07:53:27.319Z,78.25
2023-01-13T07:54:39.757Z,78.42
2023-01-13T07:55:28.300Z,78.63
2023-01-13T07:56:27.321Z,78.76
2023-01-13T07:57:27.282Z,79.58
2023-01-13T07:58:27.267Z,79.18
2023-01-13T07:59:27.288Z,78.73
2023-01-13T08:00:27.412Z,78.68
2023-01-13T08:01:27.358Z,78.76
2023-01-13T08:02:27.412Z,78.82
2023-01-13T08:03:27.210Z,78.99
2023-01-13T08:04:27.216Z,79.15
2023-01-13T08:05:27.258Z,79.25
2023-01-13T08:06:27.226Z,79.29
2023-01-13T08:07:27.170Z,79.09
2023-01-13T08:08:27.192Z,78.97
2023-01-13T08:09:27.234Z,79.04
2023-01-13T08:10:27.160Z,79.10
2023-01-13T08:11:27.126Z,79.14
2023-01-13T08:12:27.227Z,79.14
2023-01-13T08:13:27.075Z,79.19
2023-01-13T08:14:27.106Z,79.14
2023-01-13T08:15:27.073Z,79.16
2023-01-13T08:16:27.218Z,78.97
2023-01-13T08:17:27.105Z,78.94
2023-01-13T08:18:27.037Z,78.94
2023-01-13T08:21:45.189Z,78.90
2023-01-13T08:22:45.229Z,78.87
2023-01-13T08:23:45.148Z,78.68
2023-01-13T08:24:45.104Z,78.46
2023-01-13T08:25:45.132Z,78.42
2023-01-13T08:26:44.744Z,78.33
2023-01-13T08:27:44.742Z,78.24
2023-01-13T08:28:44.771Z,78.08
2023-01-13T08:29:44.710Z,78.13
2023-01-13T08:30:44.758Z,78.24
2023-01-13T08:31:44.699Z,78.36
2023-01-13T08:32:44.703Z,78.51
2023-01-13T08:33:44.704Z,78.66
2023-01-13T08:34:44.711Z,78.63
2023-01-13T08:35:44.663Z,78.53
2023-01-13T08:36:44.663Z,78.73
2023-01-13T08:37:44.665Z,78.73
2023-01-13T08:38:44.627Z,78.82
2023-01-13T08:39:44.617Z,78.95
2023-01-13T08:40:44.608Z,79.02
2023-01-13T08:41:44.644Z,79.09
2023-01-13T08:42:45.926Z,79.13
2023-01-13T08:43:44.601Z,79.28
2023-01-13T08:44:44.642Z,79.37
2023-01-13T08:45:44.770Z,79.43
2023-01-13T08:46:44.567Z,79.41
2023-01-13T08:47:44.549Z,79.58
2023-01-13T08:48:44.555Z,79.65
2023-01-13T08:49:44.542Z,79.38
2023-01-13T08:50:44.489Z,79.28
2023-01-13T08:51:44.558Z,79.39
2023-01-13T08:52:44.499Z,79.54
2023-01-13T08:53:44.513Z,79.52
2023-01-13T08:54:44.460Z,79.39
2023-01-13T08:55:44.435Z,79.11
2023-01-13T08:56:44.513Z,79.01
2023-01-13T08:57:44.419Z,79.04
2023-01-13T08:58:44.405Z,78.89
2023-01-13T08:59:44.408Z,78.71
2023-01-13T09:00:44.437Z,78.65
2023-01-13T09:01:44.458Z,78.33
2023-01-13T09:02:44.449Z,78.12
2023-01-13T09:03:44.352Z,78.13
2023-01-13T09:04:44.420Z,78.03
2023-01-13T09:05:44.336Z,77.99
2023-01-13T09:06:44.342Z,77.98
2023-01-13T09:07:44.430Z,77.69
2023-01-13T09:08:44.282Z,77.22
2023-01-13T09:09:44.333Z,76.92
2023-01-13T09:10:44.407Z,76.80
2023-01-13T09:11:44.297Z,76.68
2023-01-13T09:12:44.280Z,76.57
2023-01-13T09:13:44.300Z,76.46
2023-01-13T09:14:44.254Z,76.43
2023-01-13T09:15:44.272Z,76.21
2023-01-13T09:16:44.227Z,76.02
2023-01-13T09:17:44.284Z,75.95
2023-01-13T09:18:44.234Z,75.69
2023-01-13T09:19:44.243Z,75.71
2023-01-13T09:20:44.175Z,75.82
2023-01-13T09:21:45.651Z,75.82
2023-01-13T09:22:46.441Z,75.61
2023-01-13T09:23:44.173Z,75.47
2023-01-13T09:24:44.154Z,75.52
2023-01-13T09:25:44.125Z,75.69
2023-01-13T09:26:44.128Z,75.69
2023-01-13T09:27:44.131Z,75.82
2023-01-13T09:28:44.155Z,75.92
2023-01-13T09:29:44.118Z,76.06
2023-01-13T09:30:44.157Z,76.19
2023-01-13T09:31:44.507Z,76.24
2023-01-13T09:32:44.034Z,76.20
2023-01-13T09:33:44.034Z,76.18
2023-01-13T09:34:44.142Z,76.21
2023-01-13T09:35:44.052Z,76.28
2023-01-13T09:36:44.022Z,76.26
2023-01-13T09:37:43.968Z,76.32
2023-01-13T09:38:44.033Z,76.33
2023-01-13T09:39:43.953Z,76.29
2023-01-13T09:40:44.254Z,76.26
2023-01-13T09:41:44.066Z,76.23
2023-01-13T09:42:43.968Z,76.20
2023-01-13T09:43:44.043Z,76.12
2023-01-13T09:44:43.941Z,76.16
2023-01-13T09:45:43.933Z,76.15
2023-01-13T09:46:44.006Z,76.14
2023-01-13T09:47:43.901Z,76.05
2023-01-13T09:48:43.938Z,75.95
2023-01-13T09:49:43.872Z,75.47
2023-01-13T09:50:43.944Z,75.38
2023-01-13T09:51:44.118Z,75.36
2023-01-13T09:52:43.829Z,75.18
2023-01-13T09:53:43.897Z,75.23
2023-01-13T09:54:43.854Z,75.37
2023-01-13T09:55:43.803Z,75.34
2023-01-13T09:56:43.807Z,75.21
2023-01-13T09:57:43.767Z,74.41
2023-01-13T09:58:43.771Z,73.97
2023-01-13T09:59:43.871Z,73.71
2023-01-13T10:00:43.760Z,73.40
2023-01-13T10:01:43.801Z,72.92
2023-01-13T10:02:43.759Z,72.69
2023-01-13T10:03:43.793Z,72.69
2023-01-13T10:04:43.724Z,72.37
2023-01-13T10:05:43.755Z,72.09
2023-01-13T10:06:43.736Z,71.82
2023-01-13T10:07:43.706Z,71.82
2023-01-13T10:08:43.694Z,71.43
2023-01-13T10:09:43.808Z,71.28
2023-01-13T10:10:43.653Z,71.23
2023-01-13T10:11:43.604Z,71.34
2023-01-13T10:12:43.604Z,71.52
2023-01-13T10:13:43.594Z,71.70
2023-01-13T10:14:43.634Z,71.62
2023-01-13T10:15:43.685Z,71.46
2023-01-13T10:16:43.626Z,71.59
2023-01-13T10:17:43.587Z,71.23
2023-01-13T10:18:43.548Z,71.00
2023-01-13T10:19:43.549Z,71.00
2023-01-13T10:20:43.518Z,70.66
2023-01-13T10:21:43.511Z,70.64
2023-01-13T10:22:43.573Z,70.64
2023-01-13T10:23:43.484Z,70.85
2023-01-13T10:24:43.475Z,70.78
2023-01-13T10:25:43.498Z,70.77
2023-01-13T10:26:43.455Z,70.74
2023-01-13T10:27:43.708Z,70.77
2023-01-13T10:28:43.449Z,70.85
2023-01-13T10:29:43.507Z,70.92
2023-01-13T10:30:43.462Z,70.51
2023-01-13T10:31:43.417Z,70.18
2023-01-13T10:32:43.421Z,70.04
2023-01-13T10:33:43.362Z,70.03
2023-01-13T10:34:43.376Z,69.56
2023-01-13T10:35:43.355Z,69.73
2023-01-13T10:36:43.374Z,70.01
2023-01-13T10:37:43.346Z,70.17
2023-01-13T10:38:43.324Z,70.12
2023-01-13T10:39:43.317Z,70.31
2023-01-13T10:40:43.350Z,69.68
2023-01-13T10:41:43.288Z,69.27
2023-01-13T10:42:43.265Z,69.00
2023-01-13T10:43:43.295Z,68.36
2023-01-13T10:44:43.302Z,68.31
2023-01-13T10:45:43.229Z,68.32
2023-01-13T10:46:43.288Z,68.45
2023-01-13T10:47:43.219Z,68.47
2023-01-13T10:48:43.240Z,68.35
2023-01-13T10:49:43.250Z,67.89
2023-01-13T10:50:43.187Z,67.98
2023-01-13T10:51:43.219Z,67.72
2023-01-13T10:52:43.208Z,67.41
2023-01-13T10:53:43.165Z,67.58
2023-01-13T10:54:43.216Z,67.60
2023-01-13T10:55:43.125Z,67.80
2023-01-13T10:56:43.132Z,67.87
2023-01-13T10:57:43.104Z,67.63
2023-01-13T10:58:43.115Z,67.58
2023-01-13T10:59:43.121Z,67.73
2023-01-13T11:00:43.087Z,67.50
2023-01-13T11:01:43.171Z,67.41
2023-01-13T11:02:43.263Z,67.05
2023-01-13T11:03:43.174Z,66.65
2023-01-13T11:04:43.144Z,66.62
2023-01-13T11:05:43.008Z,66.31
2023-01-13T11:06:43.048Z,66.49
2023-01-13T11:07:43.023Z,66.71
2023-01-13T11:08:44.256Z,66.74
2023-01-13T11:09:42.976Z,66.54
2023-01-13T11:10:43.047Z,66.19
2023-01-13T11:11:42.982Z,65.83
2023-01-13T11:12:42.957Z,65.92
2023-01-13T11:13:43.133Z,65.95
2023-01-13T11:14:42.917Z,65.90
2023-01-13T11:15:42.958Z,65.85
2023-01-13T11:16:52.994Z,65.49
2023-01-13T11:17:43.903Z,65.53
2023-01-13T11:18:42.900Z,65.55
2023-01-13T11:19:42.896Z,65.47
2023-01-13T11:20:42.843Z,65.55
2023-01-13T11:21:42.848Z,65.68
2023-01-13T11:22:42.875Z,65.74
2023-01-13T11:23:42.842Z,65.61
2023-01-13T11:24:42.834Z,65.33
2023-01-13T11:25:42.825Z,64.91
2023-01-13T11:26:42.791Z,64.70
2023-01-13T11:27:42.808Z,64.55
2023-01-13T11:28:42.792Z,64.44
2023-01-13T11:29:49.322Z,64.26
2023-01-13T11:30:50.921Z,64.40
2023-01-13T11:31:42.746Z,64.73
2023-01-13T11:32:42.703Z,64.79
2023-01-13T11:33:42.689Z,64.75
2023-01-13T11:34:42.693Z,64.50
2023-01-13T11:35:42.657Z,64.61
2023-01-13T11:36:42.667Z,64.97
2023-01-13T11:37:42.679Z,64.72
2023-01-13T11:38:42.632Z,64.24
2023-01-13T11:39:42.610Z,64.10
2023-01-13T11:40:42.632Z,64.10
2023-01-13T11:41:42.625Z,64.30
2023-01-13T11:42:42.637Z,64.50
2023-01-13T11:43:42.583Z,64.65
2023-01-13T11:44:42.559Z,64.26
2023-01-13T11:45:42.566Z,64.10
2023-01-13T11:46:42.629Z,64.10
2023-01-13T11:47:42.521Z,63.83
2023-01-13T11:48:42.520Z,64.07
2023-01-13T11:49:42.591Z,64.12
2023-01-13T11:50:42.511Z,64.14
2023-01-13T11:51:42.489Z,64.00
2023-01-13T11:52:42.523Z,63.98
2023-01-13T11:53:42.593Z,63.73
2023-01-13T11:54:42.476Z,63.59
2023-01-13T11:55:42.466Z,63.77
2023-01-13T11:56:42.447Z,64.21
2023-01-13T11:57:42.434Z,63.93
2023-01-13T11:58:50.638Z,63.77
2023-01-13T11:59:43.442Z,63.23
2023-01-13T12:00:42.418Z,63.12
2023-01-13T12:01:42.450Z,63.27
2023-01-13T12:02:42.373Z,63.48
2023-01-13T12:03:42.353Z,63.38
2023-01-13T12:04:42.350Z,63.68
2023-01-13T12:05:42.381Z,63.42
2023-01-13T12:06:42.332Z,63.53
2023-01-13T12:07:42.343Z,63.33
2023-01-13T12:08:42.297Z,63.51
2023-01-13T12:09:42.300Z,63.72
2023-01-13T12:10:42.291Z,63.72
2023-01-13T12:11:42.283Z,63.41
2023-01-13T12:12:42.247Z,63.16
2023-01-13T12:13:42.256Z,63.16
2023-01-13T12:14:42.260Z,63.28
2023-01-13T12:15:42.226Z,63.09
2023-01-13T12:16:42.331Z,63.04
2023-01-13T12:17:42.225Z,62.99
2023-01-13T12:18:42.194Z,62.86
2023-01-13T12:19:42.175Z,62.78
2023-01-13T12:20:42.170Z,62.72
2023-01-13T12:21:42.192Z,62.81
2023-01-13T12:22:42.163Z,62.11
2023-01-13T12:23:42.153Z,61.40
2023-01-13T12:24:42.129Z,61.53
2023-01-13T12:25:42.120Z,61.65
2023-01-13T12:26:42.128Z,61.40
2023-01-13T12:27:42.087Z,61.17
2023-01-13T12:28:42.115Z,61.23
2023-01-13T12:29:42.110Z,61.53
2023-01-13T12:30:42.065Z,61.80
2023-01-13T12:31:42.091Z,61.66
2023-01-13T12:32:42.045Z,61.46
2023-01-13T12:33:42.103Z,60.98
2023-01-13T12:34:42.485Z,60.94
2023-01-13T12:35:42.241Z,61.03
2023-01-13T12:36:42.066Z,60.99
2023-01-13T12:37:42.133Z,61.05
2023-01-13T12:38:42.095Z,61.16
2023-01-13T12:39:41.978Z,61.32
2023-01-13T12:40:42.075Z,61.69
2023-01-13T12:41:41.948Z,61.79
2023-01-13T12:42:42.027Z,61.97
2023-01-13T12:43:41.947Z,61.98
2023-01-13T12:44:41.925Z,62.07
2023-01-13T12:45:41.924Z,62.08
2023-01-13T12:46:41.897Z,62.30
2023-01-13T12:47:41.923Z,62.89
2023-01-13T12:48:41.869Z,63.51
2023-01-13T12:49:41.886Z,64.06
2023-01-13T12:50:41.846Z,64.39
2023-01-13T12:51:41.844Z,64.48
2023-01-13T12:52:41.825Z,64.26
2023-01-13T12:53:41.945Z,64.42
2023-01-13T12:54:41.862Z,64.36
2023-01-13T12:55:41.796Z,64.45
2023-01-13T12:56:41.797Z,64.67
2023-01-13T12:57:41.796Z,64.48
2023-01-13T12:58:41.774Z,63.96
2023-01-13T12:59:41.735Z,63.67
2023-01-13T13:00:41.775Z,63.52
2023-01-13T13:01:41.809Z,63.32
2023-01-13T13:02:41.788Z,63.50
2023-01-13T13:03:41.724Z,63.78
2023-01-13T13:04:41.726Z,63.91
2023-01-13T13:05:41.676Z,63.95
2023-01-13T13:06:41.670Z,63.90
2023-01-13T13:07:41.664Z,63.62
2023-01-13T13:08:41.671Z,63.38
2023-01-13T13:09:41.650Z,63.40
2023-01-13T13:10:41.642Z,63.41
2023-01-13T13:11:41.685Z,63.39
2023-01-13T13:12:41.601Z,63.42
2023-01-13T13:13:41.619Z,63.40
2023-01-13T13:14:41.734Z,63.46
2023-01-13T13:15:41.579Z,63.57
2023-01-13T13:16:41.678Z,63.53
2023-01-13T13:17:41.557Z,63.60
2023-01-13T13:18:41.577Z,63.57
2023-01-13T13:19:41.533Z,63.70
2023-01-13T13:20:41.519Z,63.65
2023-01-13T13:21:41.525Z,63.59
2023-01-13T13:22:41.486Z,63.67
2023-01-13T13:23:41.512Z,63.66
2023-01-13T13:24:41.492Z,63.59
2023-01-13T13:25:41.486Z,63.56
2023-01-13T13:26:41.447Z,63.60
2023-01-13T13:27:41.436Z,63.40